sensor_id;sensor_type;location;lat;lon;timestamp;P1;durP1;ratioP1;P2;durP2;ratioP2
3767;SDS011;1899;49.966;7.106;2023-02-18T05:02:33;2.30;;;1.60;;
3767;SDS011;1899;49.966;7.106;2023-02-18T05:04:59;1.90;;;1.70;;
3767;SDS011;1899;49.966;7.106;2023-02-18T05:07:24;2.70;;;2.50;;
3767;SDS011;1899;49.966;7.106;2023-02-18T05:09:49;2.57;;;2.37;;
3767;SDS011;1899;49.966;7.106;2023-02-18T05:12:14;2.77;;;2.43;;
3767;SDS011;1899;49.966;7.106;2023-02-18T05:14:39;3.17;;;2.70;;
3767;SDS011;1899;49.966;7.106;2023-02-18T05:17:05;2.20;;;2.00;;
3767;SDS011;1899;49.966;7.106;2023-02-18T05:19:30;3.53;;;2.50;;
3767;SDS011;1899;49.966;7.106;2023-02-18T05:21:55;2.90;;;2.40;;
3767;SDS011;1899;49.966;7.106;2023-02-18T05:24:20;2.33;;;2.13;;
3767;SDS011;1899;49.966;7.106;2023-02-18T05:26:46;4.00;;;2.50;;
3767;SDS011;1899;49.966;7.106;2023-02-18T05:29:11;2.60;;;2.40;;
3767;SDS011;1899;49.966;7.106;2023-02-18T05:31:37;3.03;;;2.40;;
3767;SDS011;1899;49.966;7.106;2023-02-18T05:34:02;2.60;;;2.40;;
3767;SDS011;1899;49.966;7.106;2023-02-18T05:36:28;2.60;;;2.40;;
3767;SDS011;1899;49.966;7.106;2023-02-18T05:38:53;2.67;;;2.47;;
3767;SDS011;1899;49.966;7.106;2023-02-18T05:41:18;3.40;;;2.30;;
3767;SDS011;1899;49.966;7.106;2023-02-18T05:43:44;3.25;;;2.83;;
3767;SDS011;1899;49.966;7.106;2023-02-18T05:46:28;4.72;;;3.08;;
3767;SDS011;1899;49.966;7.106;2023-02-18T05:48:53;3.00;;;2.80;;
3767;SDS011;1899;49.966;7.106;2023-02-18T05:51:18;3.80;;;3.10;;
3767;SDS011;1899;49.966;7.106;2023-02-18T05:53:43;3.10;;;2.80;;
3767;SDS011;1899;49.966;7.106;2023-02-18T05:56:09;3.10;;;2.90;;
3767;SDS011;1899;49.966;7.106;2023-02-18T05:58:34;3.70;;;3.10;;
3767;SDS011;1899;49.966;7.106;2023-02-18T06:00:59;3.53;;;2.73;;
3767;SDS011;1899;49.966;7.106;2023-02-18T06:03:24;3.10;;;2.90;;
3767;SDS011;1899;49.966;7.106;2023-02-18T06:05:50;3.60;;;3.20;;
3767;SDS011;1899;49.966;7.106;2023-02-18T06:08:15;3.20;;;3.00;;
3767;SDS011;1899;49.966;7.106;2023-02-18T06:10:41;3.70;;;3.40;;
3767;SDS011;1899;49.966;7.106;2023-02-18T06:13:06;3.30;;;3.00;;
3767;SDS011;1899;49.966;7.106;2023-02-18T06:15:31;3.30;;;2.60;;
3767;SDS011;1899;49.966;7.106;2023-02-18T06:17:57;3.40;;;3.10;;
3767;SDS011;1899;49.966;7.106;2023-02-18T06:20:22;3.10;;;2.80;;
3767;SDS011;1899;49.966;7.106;2023-02-18T06:22:47;3.67;;;3.30;;
3767;SDS011;1899;49.966;7.106;2023-02-18T06:25:12;5.13;;;3.22;;
3767;SDS011;1899;49.966;7.106;2023-02-18T06:27:38;3.00;;;2.60;;
3767;SDS011;1899;49.966;7.106;2023-02-18T06:30:03;3.00;;;2.77;;
3767;SDS011;1899;49.966;7.106;2023-02-18T06:32:28;3.40;;;3.10;;
3767;SDS011;1899;49.966;7.106;2023-02-18T06:34:54;4.23;;;3.60;;
3767;SDS011;1899;49.966;7.106;2023-02-18T06:37:19;4.10;;;3.47;;
3767;SDS011;1899;49.966;7.106;2023-02-18T06:39:44;3.83;;;3.23;;
3767;SDS011;1899;49.966;7.106;2023-02-18T06:42:09;4.10;;;3.30;;
3767;SDS011;1899;49.966;7.106;2023-02-18T06:44:35;3.73;;;3.00;;
3767;SDS011;1899;49.966;7.106;2023-02-18T06:47:00;3.63;;;3.33;;
3767;SDS011;1899;49.966;7.106;2023-02-18T06:49:25;3.47;;;3.00;;
3767;SDS011;1899;49.966;7.106;2023-02-18T06:51:50;3.47;;;3.17;;
3767;SDS011;1899;49.966;7.106;2023-02-18T06:54:15;2.80;;;2.60;;
3767;SDS011;1899;49.966;7.106;2023-02-18T06:56:41;4.10;;;2.73;;
3767;SDS011;1899;49.966;7.106;2023-02-18T06:59:06;2.97;;;2.60;;
3767;SDS011;1899;49.966;7.106;2023-02-18T07:01:32;3.33;;;2.37;;
3767;SDS011;1899;49.966;7.106;2023-02-18T07:03:57;2.20;;;2.00;;
3767;SDS011;1899;49.966;7.106;2023-02-18T07:06:22;2.97;;;2.10;;
3767;SDS011;1899;49.966;7.106;2023-02-18T07:08:48;2.80;;;2.40;;
3767;SDS011;1899;49.966;7.106;2023-02-18T07:11:13;2.50;;;2.30;;
3767;SDS011;1899;49.966;7.106;2023-02-18T07:13:38;2.43;;;2.23;;
3767;SDS011;1899;49.966;7.106;2023-02-18T07:16:03;2.83;;;2.50;;
3767;SDS011;1899;49.966;7.106;2023-02-18T07:18:29;2.83;;;2.33;;
3767;SDS011;1899;49.966;7.106;2023-02-18T07:20:54;4.00;;;2.70;;
3767;SDS011;1899;49.966;7.106;2023-02-18T07:23:19;2.80;;;2.60;;
3767;SDS011;1899;49.966;7.106;2023-02-18T07:25:44;3.00;;;2.70;;
3767;SDS011;1899;49.966;7.106;2023-02-18T07:28:10;2.60;;;2.40;;
3767;SDS011;1899;49.966;7.106;2023-02-18T07:30:35;2.60;;;2.40;;
3767;SDS011;1899;49.966;7.106;2023-02-18T07:33:00;2.70;;;2.40;;
3767;SDS011;1899;49.966;7.106;2023-02-18T07:35:25;2.77;;;2.57;;
3767;SDS011;1899;49.966;7.106;2023-02-18T07:37:51;4.50;;;2.60;;
3767;SDS011;1899;49.966;7.106;2023-02-18T07:40:17;2.60;;;2.40;;
3767;SDS011;1899;49.966;7.106;2023-02-18T07:42:43;3.00;;;2.70;;
3767;SDS011;1899;49.966;7.106;2023-02-18T07:45:09;1.90;;;1.80;;
3767;SDS011;1899;49.966;7.106;2023-02-18T07:47:34;2.70;;;1.85;;
3767;SDS011;1899;49.966;7.106;2023-02-18T07:49:59;3.40;;;2.00;;
3767;SDS011;1899;49.966;7.106;2023-02-18T07:52:25;3.70;;;2.10;;
3767;SDS011;1899;49.966;7.106;2023-02-18T07:54:50;1.93;;;1.73;;
3767;SDS011;1899;49.966;7.106;2023-02-18T07:57:15;2.23;;;2.03;;
3767;SDS011;1899;49.966;7.106;2023-02-18T07:59:40;2.30;;;2.10;;
3767;SDS011;1899;49.966;7.106;2023-02-18T08:02:06;5.33;;;2.37;;
3767;SDS011;1899;49.966;7.106;2023-02-18T08:04:31;2.20;;;2.00;;
3767;SDS011;1899;49.966;7.106;2023-02-18T08:06:57;2.30;;;2.00;;
3767;SDS011;1899;49.966;7.106;2023-02-18T08:09:22;3.17;;;1.90;;
3767;SDS011;1899;49.966;7.106;2023-02-18T08:11:47;2.13;;;1.93;;
3767;SDS011;1899;49.966;7.106;2023-02-18T08:14:12;3.13;;;1.90;;
3767;SDS011;1899;49.966;7.106;2023-02-18T08:16:38;1.80;;;1.70;;
3767;SDS011;1899;49.966;7.106;2023-02-18T08:19:03;2.45;;;2.00;;
3767;SDS011;1899;49.966;7.106;2023-02-18T08:21:28;2.10;;;1.90;;
3767;SDS011;1899;49.966;7.106;2023-02-18T08:23:54;2.03;;;1.80;;
3767;SDS011;1899;49.966;7.106;2023-02-18T08:26:21;1.87;;;1.70;;
3767;SDS011;1899;49.966;7.106;2023-02-18T08:28:46;1.60;;;1.50;;
3767;SDS011;1899;49.966;7.106;2023-02-18T08:31:45;2.10;;;1.60;;
3767;SDS011;1899;49.966;7.106;2023-02-18T08:34:03;1.60;;;1.40;;
3767;SDS011;1899;49.966;7.106;2023-02-18T08:36:29;1.90;;;1.57;;
3767;SDS011;1899;49.966;7.106;2023-02-18T08:38:54;2.08;;;1.50;;
3767;SDS011;1899;49.966;7.106;2023-02-18T08:41:20;2.10;;;1.40;;
3767;SDS011;1899;49.966;7.106;2023-02-18T08:43:45;1.80;;;1.50;;
3767;SDS011;1899;49.966;7.106;2023-02-18T08:46:11;1.80;;;1.20;;
3767;SDS011;1899;49.966;7.106;2023-02-18T08:48:36;2.07;;;1.40;;
3767;SDS011;1899;49.966;7.106;2023-02-18T08:51:12;1.57;;;1.20;;
3767;SDS011;1899;49.966;7.106;2023-02-18T08:53:37;1.80;;;1.20;;
3767;SDS011;1899;49.966;7.106;2023-02-18T08:56:05;1.80;;;1.30;;
3767;SDS011;1899;49.966;7.106;2023-02-18T08:58:30;1.70;;;1.00;;
3767;SDS011;1899;49.966;7.106;2023-02-18T09:00:55;1.10;;;1.00;;
3767;SDS011;1899;49.966;7.106;2023-02-18T09:03:25;2.17;;;1.10;;
3767;SDS011;1899;49.966;7.106;2023-02-18T09:05:50;1.00;;;0.90;;
3767;SDS011;1899;49.966;7.106;2023-02-18T09:08:16;2.10;;;1.17;;
3767;SDS011;1899;49.966;7.106;2023-02-18T09:10:41;1.60;;;1.10;;
3767;SDS011;1899;49.966;7.106;2023-02-18T09:13:06;1.20;;;1.00;;
3767;SDS011;1899;49.966;7.106;2023-02-18T09:15:31;1.00;;;0.90;;
3767;SDS011;1899;49.966;7.106;2023-02-18T09:17:57;1.30;;;0.90;;
3767;SDS011;1899;49.966;7.106;2023-02-18T09:20:22;1.60;;;0.90;;
3767;SDS011;1899;49.966;7.106;2023-02-18T09:22:47;1.10;;;0.90;;
3767;SDS011;1899;49.966;7.106;2023-02-18T09:25:12;1.07;;;0.80;;
3767;SDS011;1899;49.966;7.106;2023-02-18T09:27:37;1.20;;;1.00;;
3767;SDS011;1899;49.966;7.106;2023-02-18T09:30:04;2.60;;;0.80;;
3767;SDS011;1899;49.966;7.106;2023-02-18T09:32:29;2.38;;;1.10;;
3767;SDS011;1899;49.966;7.106;2023-02-18T09:34:54;1.10;;;0.90;;
3767;SDS011;1899;49.966;7.106;2023-02-18T09:37:19;1.70;;;1.13;;
3767;SDS011;1899;49.966;7.106;2023-02-18T09:39:45;1.70;;;0.90;;
3767;SDS011;1899;49.966;7.106;2023-02-18T09:42:12;2.90;;;1.10;;
3767;SDS011;1899;49.966;7.106;2023-02-18T09:44:40;3.00;;;1.40;;
3767;SDS011;1899;49.966;7.106;2023-02-18T09:49:36;4.53;;;1.40;;
3767;SDS011;1899;49.966;7.106;2023-02-18T09:52:25;3.58;;;1.30;;
3767;SDS011;1899;49.966;7.106;2023-02-18T09:54:48;3.00;;;1.10;;
3767;SDS011;1899;49.966;7.106;2023-02-18T09:57:27;2.75;;;1.10;;
3767;SDS011;1899;49.966;7.106;2023-02-18T09:59:55;2.80;;;1.30;;
3767;SDS011;1899;49.966;7.106;2023-02-18T10:02:21;2.03;;;1.30;;
3767;SDS011;1899;49.966;7.106;2023-02-18T10:04:47;2.92;;;1.60;;
3767;SDS011;1899;49.966;7.106;2023-02-18T10:07:29;2.88;;;1.40;;
3767;SDS011;1899;49.966;7.106;2023-02-18T10:09:56;3.33;;;1.50;;
3767;SDS011;1899;49.966;7.106;2023-02-18T10:12:23;2.40;;;1.58;;
3767;SDS011;1899;49.966;7.106;2023-02-18T10:14:49;2.40;;;1.67;;
3767;SDS011;1899;49.966;7.106;2023-02-18T10:17:15;2.45;;;1.40;;
3767;SDS011;1899;49.966;7.106;2023-02-18T10:19:41;2.43;;;1.40;;
3767;SDS011;1899;49.966;7.106;2023-02-18T10:22:08;2.60;;;1.30;;
3767;SDS011;1899;49.966;7.106;2023-02-18T10:24:36;2.47;;;1.38;;
3767;SDS011;1899;49.966;7.106;2023-02-18T10:27:03;3.00;;;1.40;;
3767;SDS011;1899;49.966;7.106;2023-02-18T10:29:29;2.05;;;1.50;;
3767;SDS011;1899;49.966;7.106;2023-02-18T10:37:05;2.95;;;1.50;;
3767;SDS011;1899;49.966;7.106;2023-02-18T10:39:45;4.40;;;1.50;;
3767;SDS011;1899;49.966;7.106;2023-02-18T10:49:59;2.90;;;1.40;;
3767;SDS011;1899;49.966;7.106;2023-02-18T10:52:26;3.70;;;1.50;;
3767;SDS011;1899;49.966;7.106;2023-02-18T10:57:19;4.17;;;1.77;;
3767;SDS011;1899;49.966;7.106;2023-02-18T11:02:19;2.63;;;1.50;;
3767;SDS011;1899;49.966;7.106;2023-02-18T11:04:45;2.38;;;1.67;;
3767;SDS011;1899;49.966;7.106;2023-02-18T11:07:14;3.38;;;1.73;;
3767;SDS011;1899;49.966;7.106;2023-02-18T11:12:25;2.50;;;1.60;;
3767;SDS011;1899;49.966;7.106;2023-02-18T11:17:35;4.57;;;1.98;;
3767;SDS011;1899;49.966;7.106;2023-02-18T11:20:23;3.75;;;1.77;;
3767;SDS011;1899;49.966;7.106;2023-02-18T11:22:49;3.08;;;1.90;;
3767;SDS011;1899;49.966;7.106;2023-02-18T11:25:21;5.30;;;2.10;;
3767;SDS011;1899;49.966;7.106;2023-02-18T11:27:48;4.20;;;1.60;;
3767;SDS011;1899;49.966;7.106;2023-02-18T11:32:39;4.07;;;2.20;;
3767;SDS011;1899;49.966;7.106;2023-02-18T11:35:04;2.87;;;1.80;;
3767;SDS011;1899;49.966;7.106;2023-02-18T11:37:31;3.90;;;2.10;;
3767;SDS011;1899;49.966;7.106;2023-02-18T11:39:57;4.03;;;1.60;;
3767;SDS011;1899;49.966;7.106;2023-02-18T11:42:23;2.47;;;1.60;;
3767;SDS011;1899;49.966;7.106;2023-02-18T11:44:54;2.97;;;1.63;;
3767;SDS011;1899;49.966;7.106;2023-02-18T11:47:31;4.55;;;1.52;;
3767;SDS011;1899;49.966;7.106;2023-02-18T11:50:13;4.80;;;2.10;;
3767;SDS011;1899;49.966;7.106;2023-02-18T11:52:43;1.55;;;1.45;;
3767;SDS011;1899;49.966;7.106;2023-02-18T11:57:37;4.43;;;2.10;;
3767;SDS011;1899;49.966;7.106;2023-02-18T12:00:09;3.50;;;1.70;;
3767;SDS011;1899;49.966;7.106;2023-02-18T12:02:39;4.40;;;1.85;;
3767;SDS011;1899;49.966;7.106;2023-02-18T12:08:04;4.30;;;2.10;;
3767;SDS011;1899;49.966;7.106;2023-02-18T12:10:32;3.17;;;1.60;;
3767;SDS011;1899;49.966;7.106;2023-02-18T12:18:20;3.37;;;2.50;;
3767;SDS011;1899;49.966;7.106;2023-02-18T12:25:39;3.13;;;1.90;;
3767;SDS011;1899;49.966;7.106;2023-02-18T12:28:11;4.65;;;2.10;;
3767;SDS011;1899;49.966;7.106;2023-02-18T12:33:28;3.50;;;2.00;;
3767;SDS011;1899;49.966;7.106;2023-02-18T12:41:24;3.90;;;2.40;;
3767;SDS011;1899;49.966;7.106;2023-02-18T12:43:56;3.78;;;2.30;;
3767;SDS011;1899;49.966;7.106;2023-02-18T12:51:37;3.10;;;2.40;;
3767;SDS011;1899;49.966;7.106;2023-02-18T13:01:50;4.70;;;2.80;;
3767;SDS011;1899;49.966;7.106;2023-02-18T13:12:39;3.13;;;2.28;;
3767;SDS011;1899;49.966;7.106;2023-02-18T13:17:45;4.53;;;2.40;;
3767;SDS011;1899;49.966;7.106;2023-02-18T13:20:19;3.40;;;2.50;;
3767;SDS011;1899;49.966;7.106;2023-02-18T13:22:45;3.60;;;2.70;;
3767;SDS011;1899;49.966;7.106;2023-02-18T13:25:14;2.80;;;2.50;;
3767;SDS011;1899;49.966;7.106;2023-02-18T13:27:44;3.00;;;2.28;;
3767;SDS011;1899;49.966;7.106;2023-02-18T13:35:20;3.10;;;2.10;;
3767;SDS011;1899;49.966;7.106;2023-02-18T13:40:20;5.70;;;2.67;;
3767;SDS011;1899;49.966;7.106;2023-02-18T13:42:47;4.00;;;2.30;;
3767;SDS011;1899;49.966;7.106;2023-02-18T13:45:22;3.35;;;2.33;;
3767;SDS011;1899;49.966;7.106;2023-02-18T13:47:48;3.10;;;1.90;;
3767;SDS011;1899;49.966;7.106;2023-02-18T13:55:24;4.80;;;2.28;;
3767;SDS011;1899;49.966;7.106;2023-02-18T13:57:52;3.22;;;2.30;;
3767;SDS011;1899;49.966;7.106;2023-02-18T14:00:25;4.45;;;2.80;;
3767;SDS011;1899;49.966;7.106;2023-02-18T14:02:59;4.57;;;2.60;;
3767;SDS011;1899;49.966;7.106;2023-02-18T14:05:25;3.37;;;2.30;;
3767;SDS011;1899;49.966;7.106;2023-02-18T14:08:05;5.60;;;2.72;;
3767;SDS011;1899;49.966;7.106;2023-02-18T14:10:32;3.63;;;2.50;;
3767;SDS011;1899;49.966;7.106;2023-02-18T14:22:46;5.40;;;3.67;;
3767;SDS011;1899;49.966;7.106;2023-02-18T14:27:40;4.27;;;3.20;;
3767;SDS011;1899;49.966;7.106;2023-02-18T14:30:07;3.85;;;3.22;;
3767;SDS011;1899;49.966;7.106;2023-02-18T14:32:40;6.95;;;3.17;;
3767;SDS011;1899;49.966;7.106;2023-02-18T14:40:22;6.80;;;3.47;;
3767;SDS011;1899;49.966;7.106;2023-02-18T14:43:00;5.80;;;4.03;;
3767;SDS011;1899;49.966;7.106;2023-02-18T14:50:43;4.82;;;3.55;;
3767;SDS011;1899;49.966;7.106;2023-02-18T14:53:13;4.67;;;3.40;;
3767;SDS011;1899;49.966;7.106;2023-02-18T14:55:43;5.75;;;3.92;;
3767;SDS011;1899;49.966;7.106;2023-02-18T15:00:41;8.93;;;4.38;;
3767;SDS011;1899;49.966;7.106;2023-02-18T15:03:14;6.82;;;4.32;;
3767;SDS011;1899;49.966;7.106;2023-02-18T15:05:39;5.65;;;4.35;;
3767;SDS011;1899;49.966;7.106;2023-02-18T15:08:05;6.53;;;4.20;;
3767;SDS011;1899;49.966;7.106;2023-02-18T15:10:38;6.28;;;4.15;;
3767;SDS011;1899;49.966;7.106;2023-02-18T15:13:05;5.73;;;4.20;;
3767;SDS011;1899;49.966;7.106;2023-02-18T15:15:32;8.57;;;4.20;;
3767;SDS011;1899;49.966;7.106;2023-02-18T15:17:58;4.60;;;4.10;;
3767;SDS011;1899;49.966;7.106;2023-02-18T15:20:24;5.97;;;4.30;;
3767;SDS011;1899;49.966;7.106;2023-02-18T15:22:51;7.50;;;4.90;;
3767;SDS011;1899;49.966;7.106;2023-02-18T15:25:16;5.97;;;5.00;;
3767;SDS011;1899;49.966;7.106;2023-02-18T15:27:42;6.30;;;3.80;;
3767;SDS011;1899;49.966;7.106;2023-02-18T15:30:14;7.93;;;4.32;;
3767;SDS011;1899;49.966;7.106;2023-02-18T15:32:43;6.32;;;4.85;;
3767;SDS011;1899;49.966;7.106;2023-02-18T15:35:16;5.50;;;4.90;;
3767;SDS011;1899;49.966;7.106;2023-02-18T15:37:45;5.45;;;4.60;;
3767;SDS011;1899;49.966;7.106;2023-02-18T15:40:14;8.50;;;6.00;;
3767;SDS011;1899;49.966;7.106;2023-02-18T15:42:40;7.70;;;5.40;;
3767;SDS011;1899;49.966;7.106;2023-02-18T15:45:15;7.70;;;5.40;;
3767;SDS011;1899;49.966;7.106;2023-02-18T15:47:49;7.63;;;5.88;;
3767;SDS011;1899;49.966;7.106;2023-02-18T15:50:19;7.25;;;5.63;;
3767;SDS011;1899;49.966;7.106;2023-02-18T15:52:45;7.00;;;5.45;;
3767;SDS011;1899;49.966;7.106;2023-02-18T15:55:17;5.50;;;4.90;;
3767;SDS011;1899;49.966;7.106;2023-02-18T15:57:43;8.10;;;5.45;;
3767;SDS011;1899;49.966;7.106;2023-02-18T16:00:17;6.10;;;5.50;;
3767;SDS011;1899;49.966;7.106;2023-02-18T16:02:54;6.45;;;5.45;;
3767;SDS011;1899;49.966;7.106;2023-02-18T16:05:22;6.43;;;5.47;;
3767;SDS011;1899;49.966;7.106;2023-02-18T16:07:50;7.28;;;5.60;;
3767;SDS011;1899;49.966;7.106;2023-02-18T16:12:54;7.03;;;6.05;;
3767;SDS011;1899;49.966;7.106;2023-02-18T16:15:46;7.93;;;6.60;;
3767;SDS011;1899;49.966;7.106;2023-02-18T16:18:20;7.22;;;6.53;;
3767;SDS011;1899;49.966;7.106;2023-02-18T16:20:52;8.43;;;6.10;;
3767;SDS011;1899;49.966;7.106;2023-02-18T16:23:24;7.93;;;6.80;;
3767;SDS011;1899;49.966;7.106;2023-02-18T16:25:50;8.40;;;6.35;;
3767;SDS011;1899;49.966;7.106;2023-02-18T16:28:22;7.40;;;6.23;;
3767;SDS011;1899;49.966;7.106;2023-02-18T16:30:47;7.50;;;5.70;;
3767;SDS011;1899;49.966;7.106;2023-02-18T16:33:13;9.05;;;6.90;;
3767;SDS011;1899;49.966;7.106;2023-02-18T16:35:38;9.53;;;7.17;;
3767;SDS011;1899;49.966;7.106;2023-02-18T16:38:04;10.90;;;6.70;;
3767;SDS011;1899;49.966;7.106;2023-02-18T16:40:30;8.33;;;6.90;;
3767;SDS011;1899;49.966;7.106;2023-02-18T16:42:56;9.05;;;7.03;;
3767;SDS011;1899;49.966;7.106;2023-02-18T16:47:57;9.13;;;7.20;;
3767;SDS011;1899;49.966;7.106;2023-02-18T16:50:22;9.70;;;8.00;;
3767;SDS011;1899;49.966;7.106;2023-02-18T16:52:48;8.37;;;7.10;;
3767;SDS011;1899;49.966;7.106;2023-02-18T16:57:42;10.60;;;7.75;;
3767;SDS011;1899;49.966;7.106;2023-02-18T17:00:07;12.70;;;8.73;;
3767;SDS011;1899;49.966;7.106;2023-02-18T17:02:33;9.35;;;7.20;;
3767;SDS011;1899;49.966;7.106;2023-02-18T17:04:58;10.37;;;7.50;;
3767;SDS011;1899;49.966;7.106;2023-02-18T17:07:23;8.47;;;7.57;;
3767;SDS011;1899;49.966;7.106;2023-02-18T17:12:14;9.97;;;8.40;;
3767;SDS011;1899;49.966;7.106;2023-02-18T17:14:39;8.40;;;7.45;;
3767;SDS011;1899;49.966;7.106;2023-02-18T17:17:04;7.27;;;6.30;;
3767;SDS011;1899;49.966;7.106;2023-02-18T17:19:33;8.38;;;7.20;;
3767;SDS011;1899;49.966;7.106;2023-02-18T17:21:58;9.40;;;7.20;;
3767;SDS011;1899;49.966;7.106;2023-02-18T17:24:23;10.10;;;7.53;;
3767;SDS011;1899;49.966;7.106;2023-02-18T17:26:48;8.77;;;6.97;;
3767;SDS011;1899;49.966;7.106;2023-02-18T17:29:14;7.70;;;6.90;;
3767;SDS011;1899;49.966;7.106;2023-02-18T17:31:40;9.27;;;7.63;;
3767;SDS011;1899;49.966;7.106;2023-02-18T17:34:08;7.22;;;6.22;;
3767;SDS011;1899;49.966;7.106;2023-02-18T17:36:36;8.30;;;6.70;;
3767;SDS011;1899;49.966;7.106;2023-02-18T17:39:04;7.80;;;6.65;;
3767;SDS011;1899;49.966;7.106;2023-02-18T17:41:30;8.30;;;6.07;;
3767;SDS011;1899;49.966;7.106;2023-02-18T17:43:55;7.00;;;6.40;;
3767;SDS011;1899;49.966;7.106;2023-02-18T17:46:20;7.20;;;6.00;;
3767;SDS011;1899;49.966;7.106;2023-02-18T17:48:46;8.40;;;6.90;;
3767;SDS011;1899;49.966;7.106;2023-02-18T17:51:21;8.07;;;7.27;;
3767;SDS011;1899;49.966;7.106;2023-02-18T17:53:48;6.95;;;6.25;;
3767;SDS011;1899;49.966;7.106;2023-02-18T17:56:13;7.22;;;6.55;;
3767;SDS011;1899;49.966;7.106;2023-02-18T17:58:38;8.03;;;7.23;;
3767;SDS011;1899;49.966;7.106;2023-02-18T18:01:03;7.97;;;7.17;;
3767;SDS011;1899;49.966;7.106;2023-02-18T18:03:29;8.13;;;7.03;;
3767;SDS011;1899;49.966;7.106;2023-02-18T18:05:54;8.93;;;7.97;;
3767;SDS011;1899;49.966;7.106;2023-02-18T18:08:21;8.40;;;7.60;;
3767;SDS011;1899;49.966;7.106;2023-02-18T18:10:50;9.13;;;8.23;;
3767;SDS011;1899;49.966;7.106;2023-02-18T18:13:20;10.70;;;9.60;;
3767;SDS011;1899;49.966;7.106;2023-02-18T18:15:46;9.00;;;8.10;;
3767;SDS011;1899;49.966;7.106;2023-02-18T18:18:12;11.40;;;8.63;;
3767;SDS011;1899;49.966;7.106;2023-02-18T18:20:37;7.73;;;7.03;;
3767;SDS011;1899;49.966;7.106;2023-02-18T18:23:04;9.40;;;8.50;;
3767;SDS011;1899;49.966;7.106;2023-02-18T18:27:55;9.90;;;8.40;;
3767;SDS011;1899;49.966;7.106;2023-02-18T18:30:22;9.60;;;8.30;;
3767;SDS011;1899;49.966;7.106;2023-02-18T18:32:47;9.50;;;8.50;;
3767;SDS011;1899;49.966;7.106;2023-02-18T18:37:44;9.65;;;8.65;;
3767;SDS011;1899;49.966;7.106;2023-02-18T18:40:09;11.60;;;10.00;;
3767;SDS011;1899;49.966;7.106;2023-02-18T18:42:34;11.53;;;9.83;;
3767;SDS011;1899;49.966;7.106;2023-02-18T18:44:59;12.03;;;10.83;;
3767;SDS011;1899;49.966;7.106;2023-02-18T18:47:25;9.97;;;8.97;;
3767;SDS011;1899;49.966;7.106;2023-02-18T18:49:50;8.70;;;7.90;;
3767;SDS011;1899;49.966;7.106;2023-02-18T18:52:19;8.20;;;7.40;;
3767;SDS011;1899;49.966;7.106;2023-02-18T18:54:45;10.98;;;9.77;;
3767;SDS011;1899;49.966;7.106;2023-02-18T18:57:10;12.17;;;10.97;;
3767;SDS011;1899;49.966;7.106;2023-02-18T18:59:35;12.30;;;10.80;;
3767;SDS011;1899;49.966;7.106;2023-02-18T19:02:00;11.53;;;10.27;;
3767;SDS011;1899;49.966;7.106;2023-02-18T19:04:25;11.55;;;10.35;;
3767;SDS011;1899;49.966;7.106;2023-02-18T19:06:51;10.82;;;9.77;;
3767;SDS011;1899;49.966;7.106;2023-02-18T19:09:17;12.10;;;10.90;;
3767;SDS011;1899;49.966;7.106;2023-02-18T19:11:42;11.40;;;9.00;;
3767;SDS011;1899;49.966;7.106;2023-02-18T19:14:08;12.67;;;11.37;;
3767;SDS011;1899;49.966;7.106;2023-02-18T19:16:33;11.27;;;10.07;;
3767;SDS011;1899;49.966;7.106;2023-02-18T19:19:01;11.60;;;9.90;;
3767;SDS011;1899;49.966;7.106;2023-02-18T19:21:26;12.30;;;11.10;;
3767;SDS011;1899;49.966;7.106;2023-02-18T19:23:51;11.87;;;10.67;;
3767;SDS011;1899;49.966;7.106;2023-02-18T19:26:16;14.27;;;11.98;;
3767;SDS011;1899;49.966;7.106;2023-02-18T19:28:42;10.50;;;9.50;;
3767;SDS011;1899;49.966;7.106;2023-02-18T19:31:08;10.87;;;9.87;;
3767;SDS011;1899;49.966;7.106;2023-02-18T19:33:33;11.20;;;10.00;;
3767;SDS011;1899;49.966;7.106;2023-02-18T19:35:59;11.53;;;10.33;;
3767;SDS011;1899;49.966;7.106;2023-02-18T19:38:24;12.03;;;10.83;;
3767;SDS011;1899;49.966;7.106;2023-02-18T19:40:49;10.93;;;9.83;;
3767;SDS011;1899;49.966;7.106;2023-02-18T19:43:14;11.10;;;9.67;;
3767;SDS011;1899;49.966;7.106;2023-02-18T19:45:44;12.23;;;11.13;;
3767;SDS011;1899;49.966;7.106;2023-02-18T19:48:11;12.07;;;10.88;;
3767;SDS011;1899;49.966;7.106;2023-02-18T19:50:36;11.80;;;10.60;;
3767;SDS011;1899;49.966;7.106;2023-02-18T19:53:01;11.03;;;9.93;;
3767;SDS011;1899;49.966;7.106;2023-02-18T19:55:27;11.70;;;10.10;;
3767;SDS011;1899;49.966;7.106;2023-02-18T19:57:52;11.80;;;10.60;;
3767;SDS011;1899;49.966;7.106;2023-02-18T20:00:18;10.80;;;9.80;;
3767;SDS011;1899;49.966;7.106;2023-02-18T20:02:44;10.80;;;9.48;;
3767;SDS011;1899;49.966;7.106;2023-02-18T20:05:10;11.40;;;10.20;;
3767;SDS011;1899;49.966;7.106;2023-02-18T20:07:35;12.40;;;11.10;;
3767;SDS011;1899;49.966;7.106;2023-02-18T20:10:02;12.00;;;11.00;;
3767;SDS011;1899;49.966;7.106;2023-02-18T20:12:27;11.85;;;10.70;;
3767;SDS011;1899;49.966;7.106;2023-02-18T20:14:52;13.77;;;12.20;;
3767;SDS011;1899;49.966;7.106;2023-02-18T20:17:18;10.80;;;9.70;;
3767;SDS011;1899;49.966;7.106;2023-02-18T20:19:43;11.38;;;10.05;;
3767;SDS011;1899;49.966;7.106;2023-02-18T20:22:08;10.00;;;9.10;;
3767;SDS011;1899;49.966;7.106;2023-02-18T20:24:36;10.88;;;9.77;;
3767;SDS011;1899;49.966;7.106;2023-02-18T20:27:03;10.38;;;9.32;;
3767;SDS011;1899;49.966;7.106;2023-02-18T20:29:28;11.90;;;10.70;;
3767;SDS011;1899;49.966;7.106;2023-02-18T20:31:54;10.43;;;9.43;;
3767;SDS011;1899;49.966;7.106;2023-02-18T20:34:20;9.90;;;9.00;;
3767;SDS011;1899;49.966;7.106;2023-02-18T20:36:47;11.47;;;10.37;;
3767;SDS011;1899;49.966;7.106;2023-02-18T20:39:13;11.70;;;10.25;;
3767;SDS011;1899;49.966;7.106;2023-02-18T20:41:38;12.52;;;11.23;;
3767;SDS011;1899;49.966;7.106;2023-02-18T20:44:04;11.60;;;10.40;;
3767;SDS011;1899;49.966;7.106;2023-02-18T20:46:30;9.85;;;8.85;;
3767;SDS011;1899;49.966;7.106;2023-02-18T20:48:56;9.60;;;8.60;;
3767;SDS011;1899;49.966;7.106;2023-02-18T20:51:21;9.70;;;8.55;;
3767;SDS011;1899;49.966;7.106;2023-02-18T20:53:47;10.67;;;9.67;;
3767;SDS011;1899;49.966;7.106;2023-02-18T20:56:13;9.90;;;9.00;;
3767;SDS011;1899;49.966;7.106;2023-02-18T20:58:38;10.43;;;9.43;;
